Time;durP1;ratioP1;P1;durP2;ratioP2;P2;SDS_P1;SDS_P2;PMS_P1;PMS_P2;Temp;Humidity;BMP_temperature;BMP_pressure;BME280_temperature;BME280_humidity;BME280_pressure;Samples;Min_cycle;Max_cycle;Signal;HPM_P1;HPM_P2
2022/03/27 00:01:49;;;;;;;1.42;1.33;;;;;;;;;;5078802;28;20051;-82
2022/03/27 00:04:15;;;;;;;1.52;1.42;;;;;;;;;;5095983;28;20157;-82
2022/03/27 00:06:40;;;;;;;2.65;1.52;;;;;;;;;;5095126;28;20194;-82
2022/03/27 00:09:06;;;;;;;1.50;1.40;;;;;;;;;;5078227;28;20439;-81
2022/03/27 00:11:31;;;;;;;1.90;1.58;;;;;;;;;;5095616;28;20081;-82
2022/03/27 00:14:05;;;;;;;1.88;1.63;;;;;;;;;;5096478;28;20027;-82
2022/03/27 00:16:31;;;;;;;2.70;1.63;;;;;;;;;;5078183;28;20020;-81
2022/03/27 00:18:57;;;;;;;2.00;1.60;;;;;;;;;;5094932;28;20055;-83
2022/03/27 00:21:22;;;;;;;4.65;1.70;;;;;;;;;;5095965;28;20031;-83
2022/03/27 00:23:49;;;;;;;2.85;1.80;;;;;;;;;;5078130;28;20031;-84
2022/03/27 00:26:15;;;;;;;3.80;1.60;;;;;;;;;;5097222;28;20028;-83
2022/03/27 00:28:41;;;;;;;1.60;1.50;;;;;;;;;;5095150;28;20036;-83
2022/03/27 00:31:08;;;;;;;2.55;1.50;;;;;;;;;;5095068;28;20502;-83
2022/03/27 00:33:35;;;;;;;1.77;1.63;;;;;;;;;;5097142;28;20032;-82
2022/03/27 00:36:02;;;;;;;1.88;1.30;;;;;;;;;;5094979;28;20020;-81
2022/03/27 00:38:27;;;;;;;2.10;1.60;;;;;;;;;;5094781;28;20040;-83
2022/03/27 00:40:53;;;;;;;2.22;1.50;;;;;;;;;;5077536;28;20043;-82
2022/03/27 00:43:19;;;;;;;2.33;1.60;;;;;;;;;;5096089;28;20437;-82
2022/03/27 00:45:46;;;;;;;1.50;1.40;;;;;;;;;;5095949;28;20102;-81
2022/03/27 00:48:13;;;;;;;2.97;1.70;;;;;;;;;;5094883;28;20070;-81
2022/03/27 00:50:39;;;;;;;2.10;1.58;;;;;;;;;;5095560;28;20019;-83
2022/03/27 00:53:04;;;;;;;1.63;1.52;;;;;;;;;;5095813;28;20093;-80
2022/03/27 00:55:30;;;;;;;2.58;1.70;;;;;;;;;;5094607;28;20396;-81
2022/03/27 00:57:55;;;;;;;1.60;1.40;;;;;;;;;;5095541;28;20082;-81
2022/03/27 01:00:41;;;;;;;1.80;1.65;;;;;;;;;;5096931;28;20145;-81
2022/03/27 01:03:13;;;;;;;1.50;1.40;;;;;;;;;;5114277;28;20145;-80
2022/03/27 01:05:40;;;;;;;1.40;1.25;;;;;;;;;;5081783;28;20053;-81
2022/03/27 01:08:07;;;;;;;1.60;1.50;;;;;;;;;;5097265;28;20076;-80
2022/03/27 01:10:34;;;;;;;2.17;1.70;;;;;;;;;;5081373;28;20031;-80
2022/03/27 01:13:02;;;;;;;2.33;2.00;;;;;;;;;;5115995;28;20378;-82
2022/03/27 01:15:31;;;;;;;4.43;1.92;;;;;;;;;;5099234;28;20053;-83
2022/03/27 01:17:57;;;;;;;2.78;1.80;;;;;;;;;;5097848;28;20418;-81
2022/03/27 01:20:32;;;;;;;2.35;1.55;;;;;;;;;;5115736;28;20027;-81
2022/03/27 01:22:58;;;;;;;2.00;1.58;;;;;;;;;;5117556;28;20537;-81
2022/03/27 01:25:24;;;;;;;2.33;1.90;;;;;;;;;;5115379;28;20070;-82
2022/03/27 01:27:49;;;;;;;1.50;1.20;;;;;;;;;;5082452;28;20032;-82
2022/03/27 01:30:15;;;;;;;3.00;1.63;;;;;;;;;;5097136;28;20023;-82
2022/03/27 01:32:40;;;;;;;1.80;1.50;;;;;;;;;;5099236;28;20077;-82
2022/03/27 01:35:06;;;;;;;2.00;1.58;;;;;;;;;;5096899;28;20037;-81
2022/03/27 01:37:32;;;;;;;2.10;1.80;;;;;;;;;;5115033;28;20030;-81
2022/03/27 01:39:57;;;;;;;1.70;1.60;;;;;;;;;;5115599;28;20031;-81
2022/03/27 01:42:22;;;;;;;1.98;1.77;;;;;;;;;;5096627;28;20040;-81
2022/03/27 01:44:48;;;;;;;1.73;1.60;;;;;;;;;;5096279;28;20035;-81
2022/03/27 01:47:13;;;;;;;2.53;1.98;;;;;;;;;;5079814;28;20328;-81
2022/03/27 01:49:40;;;;;;;2.00;1.80;;;;;;;;;;5096779;28;20064;-81
2022/03/27 01:52:06;;;;;;;1.80;1.70;;;;;;;;;;5115244;28;20047;-81
2022/03/27 01:54:32;;;;;;;2.00;1.67;;;;;;;;;;5096801;28;20031;-81
2022/03/27 01:56:57;;;;;;;2.35;1.70;;;;;;;;;;5096467;28;20024;-81
2022/03/27 01:59:23;;;;;;;2.92;2.03;;;;;;;;;;5115135;28;20051;-82
2022/03/27 02:01:49;;;;;;;2.00;1.80;;;;;;;;;;5096314;28;20048;-81
2022/03/27 02:04:14;;;;;;;2.47;1.92;;;;;;;;;;5114889;28;20046;-82
2022/03/27 02:06:40;;;;;;;2.05;1.85;;;;;;;;;;5079852;28;20039;-80
2022/03/27 02:09:05;;;;;;;2.80;2.10;;;;;;;;;;5096360;28;20032;-81
2022/03/27 02:11:31;;;;;;;2.05;1.85;;;;;;;;;;5114601;28;20035;-82
2022/03/27 02:13:57;;;;;;;1.85;1.70;;;;;;;;;;5095085;28;20032;-81
2022/03/27 02:16:22;;;;;;;1.98;1.60;;;;;;;;;;5096142;28;20089;-80
2022/03/27 02:18:48;;;;;;;2.22;2.00;;;;;;;;;;5096051;28;20071;-82
2022/03/27 02:21:13;;;;;;;1.95;1.70;;;;;;;;;;5114367;28;20062;-82
2022/03/27 02:23:39;;;;;;;2.97;1.60;;;;;;;;;;5079349;28;20032;-82
2022/03/27 02:26:05;;;;;;;2.45;1.60;;;;;;;;;;5095982;28;20431;-82
2022/03/27 02:28:31;;;;;;;2.55;2.00;;;;;;;;;;5096504;28;20028;-82
2022/03/27 02:30:57;;;;;;;1.80;1.60;;;;;;;;;;5096184;28;20051;-82
2022/03/27 02:33:22;;;;;;;4.10;1.92;;;;;;;;;;5079581;28;20028;-83
2022/03/27 02:35:47;;;;;;;2.58;2.03;;;;;;;;;;5096153;28;20181;-82
2022/03/27 02:38:13;;;;;;;3.08;1.80;;;;;;;;;;5113982;28;20019;-82
2022/03/27 02:40:40;;;;;;;3.00;2.20;;;;;;;;;;5095828;28;20535;-83
2022/03/27 02:43:06;;;;;;;2.00;1.80;;;;;;;;;;5096173;28;20102;-83
2022/03/27 02:45:32;;;;;;;2.30;1.90;;;;;;;;;;5113759;28;20034;-82
2022/03/27 02:47:58;;;;;;;3.00;2.10;;;;;;;;;;5078608;28;20074;-83
2022/03/27 02:50:26;;;;;;;2.55;2.10;;;;;;;;;;5095400;28;20027;-83
2022/03/27 02:52:52;;;;;;;2.15;1.92;;;;;;;;;;5113980;28;20020;-83
2022/03/27 02:55:18;;;;;;;2.20;1.88;;;;;;;;;;5114236;28;20123;-83
2022/03/27 02:57:43;;;;;;;2.03;1.67;;;;;;;;;;5095190;28;20024;-83
2022/03/27 03:00:10;;;;;;;2.25;2.00;;;;;;;;;;5113754;28;20035;-83
2022/03/27 03:02:35;;;;;;;1.90;1.75;;;;;;;;;;5094789;28;20086;-83
2022/03/27 03:05:02;;;;;;;2.55;2.20;;;;;;;;;;5095392;28;20047;-83
2022/03/27 03:07:28;;;;;;;3.60;1.85;;;;;;;;;;5095261;28;20027;-83
2022/03/27 03:09:54;;;;;;;2.00;1.80;;;;;;;;;;5095419;28;20328;-83
2022/03/27 03:12:20;;;;;;;3.47;2.20;;;;;;;;;;5078675;28;20031;-83
2022/03/27 03:14:45;;;;;;;2.65;1.95;;;;;;;;;;5113496;28;20510;-83
2022/03/27 03:17:11;;;;;;;2.58;2.10;;;;;;;;;;5094927;28;20028;-83
2022/03/27 03:19:37;;;;;;;2.33;2.05;;;;;;;;;;5094780;28;20031;-83
2022/03/27 03:22:03;;;;;;;2.42;1.77;;;;;;;;;;5095102;28;20081;-82
2022/03/27 03:24:30;;;;;;;2.05;1.85;;;;;;;;;;5112671;28;20076;-82
2022/03/27 03:26:55;;;;;;;2.45;2.20;;;;;;;;;;5078353;28;20031;-82
2022/03/27 03:29:22;;;;;;;2.30;2.10;;;;;;;;;;5094957;28;20034;-82
2022/03/27 03:31:48;;;;;;;2.17;1.90;;;;;;;;;;5094856;28;20103;-82
2022/03/27 03:34:14;;;;;;;2.30;2.10;;;;;;;;;;5077726;28;20485;-83
2022/03/27 03:36:39;;;;;;;3.00;2.10;;;;;;;;;;5094959;28;20019;-83
2022/03/27 03:39:04;;;;;;;2.30;1.80;;;;;;;;;;5113055;28;20023;-82
2022/03/27 03:41:30;;;;;;;2.50;2.25;;;;;;;;;;5112798;28;20036;-82
2022/03/27 03:43:55;;;;;;;4.40;1.90;;;;;;;;;;5094816;28;20035;-82
2022/03/27 03:46:21;;;;;;;1.85;1.75;;;;;;;;;;5113035;28;20458;-82
2022/03/27 03:48:46;;;;;;;1.90;1.67;;;;;;;;;;5094653;28;20414;-84
2022/03/27 03:51:12;;;;;;;3.67;2.03;;;;;;;;;;5078020;28;20394;-83
2022/03/27 03:53:37;;;;;;;1.85;1.70;;;;;;;;;;5094806;28;20050;-83
2022/03/27 03:56:05;;;;;;;1.90;1.70;;;;;;;;;;5078850;28;20539;-82
2022/03/27 03:58:30;;;;;;;1.70;1.60;;;;;;;;;;5113469;28;20112;-82
2022/03/27 04:00:56;;;;;;;2.65;2.00;;;;;;;;;;5114541;28;20023;-82
2022/03/27 04:03:21;;;;;;;2.15;1.95;;;;;;;;;;5077737;28;20055;-83
2022/03/27 04:05:47;;;;;;;1.60;1.50;;;;;;;;;;5113442;28;20031;-82
2022/03/27 04:08:14;;;;;;;1.98;1.73;;;;;;;;;;5113049;28;20111;-83
2022/03/27 04:10:41;;;;;;;2.72;1.67;;;;;;;;;;5113431;28;20046;-82
2022/03/27 04:13:07;;;;;;;1.85;1.75;;;;;;;;;;5094932;28;20031;-83
2022/03/27 04:15:32;;;;;;;2.00;1.85;;;;;;;;;;5112968;28;20077;-82
2022/03/27 04:18:00;;;;;;;1.75;1.65;;;;;;;;;;5114080;28;20032;-82
2022/03/27 04:20:26;;;;;;;1.90;1.67;;;;;;;;;;5113136;28;20028;-82
2022/03/27 04:22:51;;;;;;;2.53;1.73;;;;;;;;;;5077884;28;20028;-83
2022/03/27 04:25:17;;;;;;;1.98;1.63;;;;;;;;;;5112956;28;20035;-82
2022/03/27 04:27:42;;;;;;;2.50;1.63;;;;;;;;;;5112666;28;20023;-82
2022/03/27 04:30:09;;;;;;;2.15;1.67;;;;;;;;;;5112877;28;20030;-82
2022/03/27 04:32:38;;;;;;;1.70;1.60;;;;;;;;;;5113348;28;20016;-82
2022/03/27 04:35:05;;;;;;;2.08;1.70;;;;;;;;;;5078270;28;20031;-82
2022/03/27 04:37:30;;;;;;;2.05;1.65;;;;;;;;;;5097156;28;20023;-81
2022/03/27 04:40:02;;;;;;;1.52;1.42;;;;;;;;;;5098778;28;20035;-82
2022/03/27 04:42:28;;;;;;;1.83;1.45;;;;;;;;;;5082219;28;20485;-81
2022/03/27 04:44:53;;;;;;;1.80;1.63;;;;;;;;;;5098917;28;20053;-82
2022/03/27 04:47:19;;;;;;;1.40;1.30;;;;;;;;;;5081257;28;20458;-81
2022/03/27 04:49:44;;;;;;;1.70;1.40;;;;;;;;;;5081418;28;20031;-81
2022/03/27 04:52:10;;;;;;;1.73;1.40;;;;;;;;;;5098079;28;20027;-81
2022/03/27 04:54:35;;;;;;;1.90;1.52;;;;;;;;;;5116277;28;20107;-81
2022/03/27 04:57:01;;;;;;;1.67;1.45;;;;;;;;;;5080979;28;20024;-81
2022/03/27 04:59:27;;;;;;;1.50;1.40;;;;;;;;;;5097834;28;20055;-81
2022/03/27 05:01:52;;;;;;;5.88;1.50;;;;;;;;;;5116100;28;20024;-81
2022/03/27 05:04:17;;;;;;;2.10;1.65;;;;;;;;;;5116125;28;20079;-81
2022/03/27 05:06:43;;;;;;;2.03;1.67;;;;;;;;;;5097978;28;20127;-81
2022/03/27 05:09:08;;;;;;;2.15;1.70;;;;;;;;;;5097874;28;20035;-82
2022/03/27 05:11:34;;;;;;;2.00;1.80;;;;;;;;;;5097788;28;20077;-80
2022/03/27 05:13:59;;;;;;;3.17;1.85;;;;;;;;;;5080898;28;20032;-81
2022/03/27 05:16:24;;;;;;;1.60;1.50;;;;;;;;;;5098080;28;20034;-81
2022/03/27 05:18:50;;;;;;;1.95;1.75;;;;;;;;;;5097746;28;20374;-81
2022/03/27 05:21:15;;;;;;;1.55;1.30;;;;;;;;;;5080812;28;20394;-82
2022/03/27 05:23:42;;;;;;;1.73;1.63;;;;;;;;;;5098245;28;20050;-81
2022/03/27 05:26:08;;;;;;;1.90;1.67;;;;;;;;;;5098723;28;20062;-81
2022/03/27 05:28:34;;;;;;;2.17;1.60;;;;;;;;;;5100357;28;20028;-81
2022/03/27 05:31:01;;;;;;;1.73;1.63;;;;;;;;;;5098658;28;20390;-81
2022/03/27 05:33:26;;;;;;;1.60;1.50;;;;;;;;;;5098201;28;20028;-81
2022/03/27 05:35:53;;;;;;;2.85;1.48;;;;;;;;;;5117125;28;20032;-81
2022/03/27 05:38:19;;;;;;;1.38;1.27;;;;;;;;;;5116913;28;20046;-80
2022/03/27 05:40:45;;;;;;;1.60;1.50;;;;;;;;;;5099620;28;20061;-81
2022/03/27 05:43:10;;;;;;;2.10;1.60;;;;;;;;;;5098996;28;20435;-81
2022/03/27 05:45:35;;;;;;;1.40;1.30;;;;;;;;;;5099093;28;20493;-80
2022/03/27 05:48:03;;;;;;;2.63;1.33;;;;;;;;;;5098976;28;20035;-81
2022/03/27 05:50:31;;;;;;;1.55;1.45;;;;;;;;;;5098670;28;20020;-83
2022/03/27 05:52:57;;;;;;;1.88;1.45;;;;;;;;;;5115852;28;20020;-82
2022/03/27 05:55:22;;;;;;;1.88;1.70;;;;;;;;;;5098793;28;20032;-81
2022/03/27 05:57:49;;;;;;;1.98;1.15;;;;;;;;;;5098929;28;20020;-82
2022/03/27 06:00:21;;;;;;;3.13;1.65;;;;;;;;;;5098775;28;20091;-82
2022/03/27 06:02:48;;;;;;;1.80;1.70;;;;;;;;;;5116260;28;20134;-83
2022/03/27 06:05:13;;;;;;;2.45;1.42;;;;;;;;;;5081382;28;20019;-82
2022/03/27 06:07:47;;;;;;;1.60;1.50;;;;;;;;;;5099488;28;20507;-82
2022/03/27 06:10:14;;;;;;;2.72;1.70;;;;;;;;;;5099796;28;20122;-82
2022/03/27 06:12:39;;;;;;;4.25;1.70;;;;;;;;;;5099666;28;20024;-82
2022/03/27 06:15:06;;;;;;;1.40;1.30;;;;;;;;;;5099204;28;20363;-83
2022/03/27 06:17:43;;;;;;;1.30;1.23;;;;;;;;;;5098294;28;20114;-83
2022/03/27 06:20:12;;;;;;;1.80;1.50;;;;;;;;;;5097407;28;20113;-80
2022/03/27 06:22:39;;;;;;;1.85;1.67;;;;;;;;;;5098088;28;20374;-80
2022/03/27 06:25:05;;;;;;;2.08;1.88;;;;;;;;;;5097910;28;20062;-83
2022/03/27 06:27:31;;;;;;;2.47;1.67;;;;;;;;;;5098342;28;20094;-82
2022/03/27 06:29:56;;;;;;;1.55;1.45;;;;;;;;;;5096763;28;20115;-83
2022/03/27 06:32:22;;;;;;;1.70;1.60;;;;;;;;;;5114877;28;20042;-82
2022/03/27 06:34:47;;;;;;;1.70;1.60;;;;;;;;;;5096561;28;20251;-83
2022/03/27 06:37:12;;;;;;;2.35;1.75;;;;;;;;;;5079757;28;20039;-83
2022/03/27 06:39:38;;;;;;;1.70;1.60;;;;;;;;;;5116090;28;20407;-82
2022/03/27 06:42:04;;;;;;;1.60;1.50;;;;;;;;;;5096563;28;20035;-83
2022/03/27 06:44:29;;;;;;;1.60;1.50;;;;;;;;;;5079259;28;20028;-82
2022/03/27 06:46:54;;;;;;;3.05;1.45;;;;;;;;;;5079149;28;20085;-82
2022/03/27 06:49:20;;;;;;;2.67;1.70;;;;;;;;;;5116071;28;20024;-81
2022/03/27 06:51:45;;;;;;;2.17;1.90;;;;;;;;;;5116330;28;20054;-82
2022/03/27 06:54:11;;;;;;;1.98;1.70;;;;;;;;;;5116020;28;20066;-82
2022/03/27 06:56:40;;;;;;;2.08;1.70;;;;;;;;;;5080697;28;20045;-81
2022/03/27 06:59:06;;;;;;;2.28;1.73;;;;;;;;;;5097564;28;20107;-80
2022/03/27 07:04:15;;;;;;;1.60;1.45;;;;;;;;;;5113940;28;20486;-80
2022/03/27 07:06:42;;;;;;;1.92;1.58;;;;;;;;;;5097628;28;20031;-82
2022/03/27 07:09:09;;;;;;;3.63;2.05;;;;;;;;;;5097913;28;20031;-82
2022/03/27 07:11:35;;;;;;;2.50;1.88;;;;;;;;;;5079486;28;20134;-83
2022/03/27 07:14:00;;;;;;;2.13;1.83;;;;;;;;;;5115008;28;20071;-80
2022/03/27 07:16:26;;;;;;;2.65;2.20;;;;;;;;;;5116561;28;20031;-81
2022/03/27 07:18:52;;;;;;;2.83;1.80;;;;;;;;;;5116420;28;20034;-81
2022/03/27 07:21:18;;;;;;;2.30;2.10;;;;;;;;;;5097262;28;20027;-82
2022/03/27 07:23:44;;;;;;;2.60;1.88;;;;;;;;;;5117519;28;20047;-82
2022/03/27 07:26:10;;;;;;;2.63;2.00;;;;;;;;;;5116119;28;20097;-83
2022/03/27 07:28:36;;;;;;;4.57;2.10;;;;;;;;;;5085034;28;20482;-82
2022/03/27 07:31:02;;;;;;;2.75;2.30;;;;;;;;;;5116267;28;20035;-83
2022/03/27 07:33:28;;;;;;;3.15;2.00;;;;;;;;;;5098400;28;20035;-83
2022/03/27 07:35:54;;;;;;;2.20;1.70;;;;;;;;;;5079348;28;20355;-84
2022/03/27 07:38:20;;;;;;;2.97;2.33;;;;;;;;;;5097324;28;20478;-84
2022/03/27 07:40:45;;;;;;;2.47;2.00;;;;;;;;;;5080837;28;20060;-85
2022/03/27 07:43:11;;;;;;;2.38;1.85;;;;;;;;;;5081366;28;20031;-83
2022/03/27 07:45:37;;;;;;;6.45;2.88;;;;;;;;;;5098327;28;20363;-83
2022/03/27 07:48:05;;;;;;;4.47;2.40;;;;;;;;;;5080188;28;20035;-83
2022/03/27 07:50:32;;;;;;;2.63;1.90;;;;;;;;;;5117346;28;20028;-84
2022/03/27 07:53:02;;;;;;;2.45;2.00;;;;;;;;;;5098341;28;20393;-85
2022/03/27 07:55:28;;;;;;;3.20;1.77;;;;;;;;;;5098320;28;20051;-84
2022/03/27 07:57:55;;;;;;;1.98;1.80;;;;;;;;;;5081206;28;20051;-82
2022/03/27 08:00:20;;;;;;;7.15;2.10;;;;;;;;;;5080894;28;20040;-80
2022/03/27 08:02:46;;;;;;;3.20;1.95;;;;;;;;;;5115152;28;20108;-84
2022/03/27 08:05:12;;;;;;;7.07;2.28;;;;;;;;;;5096753;28;20042;-83
2022/03/27 08:07:38;;;;;;;4.30;2.00;;;;;;;;;;5097759;28;20034;-84
2022/03/27 08:10:04;;;;;;;4.20;2.60;;;;;;;;;;5115502;28;20458;-83
2022/03/27 08:12:29;;;;;;;4.35;2.20;;;;;;;;;;5117375;28;20024;-83
2022/03/27 08:14:55;;;;;;;3.00;2.03;;;;;;;;;;5083898;28;20038;-82
2022/03/27 08:17:21;;;;;;;5.75;2.30;;;;;;;;;;5084208;28;20026;-84
2022/03/27 08:19:47;;;;;;;7.55;2.88;;;;;;;;;;5119327;28;20028;-84
2022/03/27 08:22:13;;;;;;;5.38;3.03;;;;;;;;;;5087889;28;20027;-82
2022/03/27 08:24:39;;;;;;;6.93;3.55;;;;;;;;;;5068209;28;20057;-81
2022/03/27 08:27:06;;;;;;;6.32;3.47;;;;;;;;;;5105521;28;20478;-82
2022/03/27 08:29:35;;;;;;;7.47;3.22;;;;;;;;;;5122429;28;20059;-82
2022/03/27 08:32:03;;;;;;;6.88;3.13;;;;;;;;;;5084889;28;20035;-81
2022/03/27 08:34:30;;;;;;;5.03;3.33;;;;;;;;;;5117983;28;20027;-81
2022/03/27 08:36:57;;;;;;;11.95;3.33;;;;;;;;;;5117102;28;20158;-81
2022/03/27 08:39:24;;;;;;;10.88;3.45;;;;;;;;;;5117207;28;20051;-81
2022/03/27 08:41:51;;;;;;;8.02;3.45;;;;;;;;;;5099280;28;20100;-84
2022/03/27 08:44:18;;;;;;;5.78;3.42;;;;;;;;;;5100810;28;20028;-81
2022/03/27 08:46:44;;;;;;;6.18;2.85;;;;;;;;;;5100140;28;20047;-82
2022/03/27 08:49:32;;;;;;;4.18;2.47;;;;;;;;;;5101507;28;20431;-81
2022/03/27 08:52:01;;;;;;;7.18;3.50;;;;;;;;;;5099347;28;20051;-80
2022/03/27 08:54:34;;;;;;;5.68;3.00;;;;;;;;;;5098653;28;20405;-83
2022/03/27 08:57:05;;;;;;;5.25;2.53;;;;;;;;;;5117998;28;20034;-82
2022/03/27 08:59:32;;;;;;;15.68;2.92;;;;;;;;;;5100140;28;20035;-82
2022/03/27 09:01:58;;;;;;;6.10;2.65;;;;;;;;;;5099556;28;20501;-83
2022/03/27 09:04:24;;;;;;;4.60;2.70;;;;;;;;;;5076775;28;20063;-83
2022/03/27 09:06:49;;;;;;;6.55;2.88;;;;;;;;;;5095931;28;20036;-80
2022/03/27 09:09:15;;;;;;;7.85;2.90;;;;;;;;;;5096562;28;20027;-81
2022/03/27 09:11:41;;;;;;;5.53;2.97;;;;;;;;;;5097304;28;20387;-81
2022/03/27 09:14:08;;;;;;;4.82;2.50;;;;;;;;;;5097745;28;20039;-81
2022/03/27 09:17:03;;;;;;;5.63;2.70;;;;;;;;;;5095322;28;20142;-81
2022/03/27 09:19:41;;;;;;;5.53;2.08;;;;;;;;;;5094820;28;20428;-83
2022/03/27 09:22:15;;;;;;;4.80;2.28;;;;;;;;;;5095882;28;20024;-82
2022/03/27 09:24:42;;;;;;;4.15;2.35;;;;;;;;;;5096921;28;20016;-83
2022/03/27 09:27:08;;;;;;;5.03;2.50;;;;;;;;;;5094725;28;20117;-84
2022/03/27 09:30:11;;;;;;;7.20;2.20;;;;;;;;;;5096579;28;20080;-82
2022/03/27 09:32:39;;;;;;;3.25;2.08;;;;;;;;;;5001391;28;20026;-80
2022/03/27 09:35:08;;;;;;;6.13;2.67;;;;;;;;;;5018261;28;20472;-85
2022/03/27 09:37:41;;;;;;;8.27;2.60;;;;;;;;;;5017652;28;20392;-82
2022/03/27 09:40:09;;;;;;;12.93;3.03;;;;;;;;;;5033211;28;20037;-84
2022/03/27 09:42:39;;;;;;;11.23;3.20;;;;;;;;;;5035541;28;20064;-85
2022/03/27 09:45:13;;;;;;;8.10;2.58;;;;;;;;;;5035437;28;20053;-84
2022/03/27 09:47:40;;;;;;;8.82;3.25;;;;;;;;;;5037566;28;20120;-86
2022/03/27 09:50:09;;;;;;;8.98;2.55;;;;;;;;;;5017944;28;20021;-85
2022/03/27 09:52:38;;;;;;;9.60;3.20;;;;;;;;;;5021559;28;20149;-85
2022/03/27 09:55:07;;;;;;;8.35;3.05;;;;;;;;;;5005703;28;20044;-86
2022/03/27 09:57:40;;;;;;;7.97;2.72;;;;;;;;;;5022632;28;20028;-86
2022/03/27 10:00:12;;;;;;;5.40;2.25;;;;;;;;;;5005241;28;20425;-89
2022/03/27 10:02:41;;;;;;;11.20;2.70;;;;;;;;;;5037256;28;20467;-89
2022/03/27 10:05:11;;;;;;;7.50;2.33;;;;;;;;;;4999983;28;20082;-89
2022/03/27 10:07:41;;;;;;;13.18;2.80;;;;;;;;;;5041917;28;20059;-89
2022/03/27 10:10:12;;;;;;;6.90;2.78;;;;;;;;;;5060394;28;20105;-89
2022/03/27 10:12:38;;;;;;;7.82;2.88;;;;;;;;;;5058740;28;20629;-87
2022/03/27 10:15:11;;;;;;;8.77;2.67;;;;;;;;;;5059703;28;20096;-86
2022/03/27 10:17:38;;;;;;;7.30;3.00;;;;;;;;;;5076435;28;20077;-87
2022/03/27 10:20:07;;;;;;;6.13;2.55;;;;;;;;;;5077831;28;20020;-87
2022/03/27 10:22:35;;;;;;;6.25;2.28;;;;;;;;;;5076760;28;20020;-86
2022/03/27 10:25:03;;;;;;;5.88;2.47;;;;;;;;;;5075136;28;20033;-87
2022/03/27 10:27:30;;;;;;;5.10;2.22;;;;;;;;;;5057542;28;20025;-87
2022/03/27 10:29:56;;;;;;;4.38;1.90;;;;;;;;;;5074154;28;20033;-87
2022/03/27 10:32:22;;;;;;;4.88;2.00;;;;;;;;;;5074210;28;20429;-88
2022/03/27 10:34:59;;;;;;;6.25;1.88;;;;;;;;;;5056750;28;20114;-84
2022/03/27 10:37:40;;;;;;;7.05;2.08;;;;;;;;;;5075508;28;20038;-86
2022/03/27 10:40:12;;;;;;;5.75;1.73;;;;;;;;;;5077628;28;20412;-85
2022/03/27 10:43:10;;;;;;;5.72;2.20;;;;;;;;;;5059731;28;20068;-85
2022/03/27 10:45:36;;;;;;;7.93;2.20;;;;;;;;;;5066914;28;20037;-86
2022/03/27 10:48:22;;;;;;;6.00;2.17;;;;;;;;;;5058502;28;20033;-83
2022/03/27 10:50:55;;;;;;;3.97;2.50;;;;;;;;;;5075293;28;20059;-83
2022/03/27 10:53:22;;;;;;;2.90;1.80;;;;;;;;;;5074196;28;20029;-83
2022/03/27 10:55:52;;;;;;;4.38;2.20;;;;;;;;;;5058512;28;20494;-83
2022/03/27 10:58:41;;;;;;;7.55;2.20;;;;;;;;;;5074708;28;20028;-82
2022/03/27 11:01:09;;;;;;;6.88;2.17;;;;;;;;;;5069793;28;20044;-80
2022/03/27 11:04:04;;;;;;;13.63;2.55;;;;;;;;;;5087987;28;20052;-88
2022/03/27 11:06:32;;;;;;;6.35;2.22;;;;;;;;;;5098157;28;20478;-80
2022/03/27 11:08:59;;;;;;;4.28;1.98;;;;;;;;;;5103222;28;20039;-79
2022/03/27 11:11:53;;;;;;;4.07;2.15;;;;;;;;;;5110382;28;20028;-80
2022/03/27 11:14:42;;;;;;;5.30;1.77;;;;;;;;;;5098828;28;20047;-80
2022/03/27 11:17:12;;;;;;;5.78;1.50;;;;;;;;;;5095145;28;20047;-79
2022/03/27 11:19:45;;;;;;;3.40;1.60;;;;;;;;;;5097967;28;20110;-79
2022/03/27 11:22:40;;;;;;;2.72;1.40;;;;;;;;;;5095926;28;20043;-79
2022/03/27 11:25:24;;;;;;;5.90;1.60;;;;;;;;;;5086807;28;20024;-80
2022/03/27 11:27:54;;;;;;;;;;;;;;;;;;5099520;28;20020;-84
2022/03/27 11:30:19;;;;;;;2.92;1.25;;;;;;;;;;5097907;28;19908;-81
2022/03/27 11:33:15;;;;;;;3.28;1.52;;;;;;;;;;5079637;28;20420;-81
2022/03/27 11:36:12;;;;;;;5.65;1.60;;;;;;;;;;5088958;28;20095;-82
2022/03/27 11:38:51;;;;;;;2.40;1.40;;;;;;;;;;5096438;28;20047;-83
2022/03/27 11:41:31;;;;;;;3.08;1.33;;;;;;;;;;5098740;28;20171;-83
2022/03/27 11:44:19;;;;;;;2.10;1.55;;;;;;;;;;5097598;28;20100;-83
2022/03/27 11:46:49;;;;;;;3.53;1.40;;;;;;;;;;5099090;28;20028;-83
2022/03/27 11:49:15;;;;;;;5.13;1.35;;;;;;;;;;5097413;28;20031;-83
2022/03/27 11:51:40;;;;;;;2.40;1.40;;;;;;;;;;5062983;28;20035;-83
2022/03/27 11:54:21;;;;;;;2.03;1.30;;;;;;;;;;5093624;28;20028;-83
2022/03/27 11:56:58;;;;;;;3.10;1.40;;;;;;;;;;5092288;28;20024;-83
2022/03/27 11:59:27;;;;;;;3.35;1.45;;;;;;;;;;5094400;28;20438;-84
2022/03/27 12:01:57;;;;;;;4.50;1.77;;;;;;;;;;5092795;28;20035;-83
2022/03/27 12:04:24;;;;;;;2.50;1.42;;;;;;;;;;5092613;28;20055;-83
2022/03/27 12:06:57;;;;;;;2.97;1.63;;;;;;;;;;5092518;28;20048;-83
2022/03/27 12:09:30;;;;;;;5.07;1.50;;;;;;;;;;5077340;28;20039;-84
2022/03/27 12:12:04;;;;;;;2.97;1.30;;;;;;;;;;5092294;28;20046;-84
2022/03/27 12:14:30;;;;;;;3.42;1.30;;;;;;;;;;5092980;28;20020;-84
2022/03/27 12:16:56;;;;;;;3.42;1.38;;;;;;;;;;5093425;28;20032;-86
2022/03/27 12:19:21;;;;;;;1.63;1.40;;;;;;;;;;5093809;28;20032;-85
2022/03/27 12:21:47;;;;;;;3.80;1.27;;;;;;;;;;5093262;28;20040;-84
2022/03/27 12:24:13;;;;;;;2.95;1.55;;;;;;;;;;5092801;28;20048;-84
2022/03/27 12:29:40;;;;;;;2.92;1.30;;;;;;;;;;5092306;28;20416;-83
2022/03/27 12:32:22;;;;;;;2.33;1.50;;;;;;;;;;5091674;28;20141;-84
2022/03/27 12:34:55;;;;;;;3.88;1.80;;;;;;;;;;5092674;28;20031;-84
2022/03/27 12:37:26;;;;;;;2.20;1.35;;;;;;;;;;5091888;28;20027;-84
2022/03/27 12:39:51;;;;;;;3.15;1.33;;;;;;;;;;5092515;28;20048;-84
2022/03/27 12:42:29;;;;;;;1.15;1.00;;;;;;;;;;5094322;28;20024;-85
2022/03/27 12:45:03;;;;;;;5.47;2.38;;;;;;;;;;5095442;28;20035;-83
2022/03/27 12:47:29;;;;;;;;;;;;;;;;;;5092680;28;20506;-84
2022/03/27 12:49:54;;;;;;;3.17;1.70;;;;;;;;;;5093318;28;19981;-84
2022/03/27 12:52:20;;;;;;;3.67;2.00;;;;;;;;;;5094230;28;20051;-84
2022/03/27 12:54:56;;;;;;;3.67;1.65;;;;;;;;;;5094895;28;20424;-83
2022/03/27 12:57:21;;;;;;;4.55;1.60;;;;;;;;;;5094095;28;20454;-83
2022/03/27 12:59:46;;;;;;;2.10;1.48;;;;;;;;;;5096532;28;20024;-82
2022/03/27 13:02:27;;;;;;;4.50;1.60;;;;;;;;;;5097036;28;20036;-83
2022/03/27 13:05:00;;;;;;;5.78;2.08;;;;;;;;;;5114595;28;20048;-84
2022/03/27 13:08:01;;;;;;;5.68;2.05;;;;;;;;;;5066294;28;20027;-83
2022/03/27 13:10:27;;;;;;;3.33;1.50;;;;;;;;;;5035150;28;20030;-82
2022/03/27 13:12:57;;;;;;;1.58;1.35;;;;;;;;;;5036705;28;20034;-83
2022/03/27 13:15:36;;;;;;;3.33;1.58;;;;;;;;;;5019492;28;20037;-84
2022/03/27 13:18:12;;;;;;;4.10;2.08;;;;;;;;;;5035648;28;20036;-83
2022/03/27 13:20:38;;;;;;;3.65;1.75;;;;;;;;;;5019693;28;20033;-82
2022/03/27 13:23:04;;;;;;;3.72;1.80;;;;;;;;;;5036885;28;20104;-83
2022/03/27 13:25:30;;;;;;;4.45;1.90;;;;;;;;;;5035782;28;20049;-85
2022/03/27 13:27:57;;;;;;;14.95;1.88;;;;;;;;;;5037279;28;20080;-83
2022/03/27 13:30:24;;;;;;;3.55;1.95;;;;;;;;;;5037653;28;20069;-84
2022/03/27 13:32:49;;;;;;;7.07;2.83;;;;;;;;;;5020841;28;20391;-84
2022/03/27 13:35:15;;;;;;;7.20;1.90;;;;;;;;;;5020032;28;20029;-83
2022/03/27 13:37:41;;;;;;;5.95;2.00;;;;;;;;;;5026075;28;20043;-83
2022/03/27 13:40:07;;;;;;;2.80;1.50;;;;;;;;;;5054124;28;20152;-83
2022/03/27 13:45:21;;;;;;;4.72;2.25;;;;;;;;;;5099802;28;20038;-83
2022/03/27 13:47:47;;;;;;;4.28;1.92;;;;;;;;;;5082707;28;20032;-82
2022/03/27 13:50:14;;;;;;;5.38;2.13;;;;;;;;;;5122570;28;20035;-82
2022/03/27 13:52:40;;;;;;;7.40;1.92;;;;;;;;;;5122553;28;20073;-84
2022/03/27 13:55:09;;;;;;;5.10;2.58;;;;;;;;;;5125643;28;20023;-81
2022/03/27 13:57:35;;;;;;;5.90;1.90;;;;;;;;;;5090178;28;20024;-81
2022/03/27 14:00:01;;;;;;;7.68;2.65;;;;;;;;;;5090603;28;20030;-82
2022/03/27 14:02:35;;;;;;;8.13;2.38;;;;;;;;;;5074593;28;20409;-83
2022/03/27 14:05:03;;;;;;;7.72;2.30;;;;;;;;;;5102735;28;20101;-82
2022/03/27 14:07:29;;;;;;;9.32;2.25;;;;;;;;;;5069182;28;20502;-81
2022/03/27 14:09:54;;;;;;;5.55;2.30;;;;;;;;;;5120465;28;20061;-83
2022/03/27 14:12:19;;;;;;;4.80;2.20;;;;;;;;;;5100412;28;20027;-83
2022/03/27 14:14:45;;;;;;;5.32;2.13;;;;;;;;;;5100824;28;20038;-82
2022/03/27 14:17:10;;;;;;;6.50;2.15;;;;;;;;;;5117213;28;20207;-81
2022/03/27 14:19:37;;;;;;;6.85;2.55;;;;;;;;;;5083361;28;20028;-82
2022/03/27 14:22:03;;;;;;;4.82;2.60;;;;;;;;;;5104692;28;20027;-81
2022/03/27 14:24:29;;;;;;;6.55;2.25;;;;;;;;;;5083702;28;20034;-84
2022/03/27 14:26:54;;;;;;;7.03;2.13;;;;;;;;;;5100179;28;20031;-83
2022/03/27 14:29:20;;;;;;;5.07;2.47;;;;;;;;;;5066156;28;20051;-82
2022/03/27 14:31:46;;;;;;;6.78;2.08;;;;;;;;;;5100237;28;20058;-83
2022/03/27 14:34:12;;;;;;;6.32;2.58;;;;;;;;;;5099003;28;20031;-83
2022/03/27 14:36:38;;;;;;;14.18;4.90;;;;;;;;;;5102438;28;20084;-84
2022/03/27 14:39:04;;;;;;;11.23;4.32;;;;;;;;;;5100412;28;20027;-88
2022/03/27 14:41:30;;;;;;;21.95;3.88;;;;;;;;;;5085043;28;20027;-88
2022/03/27 14:43:55;;;;;;;15.55;3.92;;;;;;;;;;5100636;28;20033;-86
2022/03/27 14:46:21;;;;;;;13.45;3.75;;;;;;;;;;5100609;28;20019;-85
2022/03/27 14:48:46;;;;;;;17.55;4.32;;;;;;;;;;5120780;28;20031;-84
2022/03/27 14:51:12;;;;;;;16.95;3.63;;;;;;;;;;5101217;28;20386;-85
2022/03/27 14:56:21;;;;;;;;;;;;;;;;;;5106666;28;20532;-85
2022/03/27 14:58:48;;;;;;;10.52;3.00;;;;;;;;;;5085160;28;19911;-86
2022/03/27 15:01:13;;;;;;;9.00;3.42;;;;;;;;;;5100693;28;20020;-85